createdAt,value
2018-06-24T00:00:48.957Z,12.88
2018-06-24T00:01:48.946Z,12.85
2018-06-24T00:02:48.936Z,12.87
2018-06-24T00:03:48.925Z,12.81
2018-06-24T00:04:48.914Z,12.87
2018-06-24T00:05:48.928Z,12.91
2018-06-24T00:06:48.892Z,12.88
2018-06-24T00:07:48.881Z,12.96
2018-06-24T00:08:48.871Z,12.91
2018-06-24T00:09:48.861Z,12.89
2018-06-24T00:10:48.874Z,12.94
2018-06-24T00:11:48.840Z,12.88
2018-06-24T00:12:48.828Z,12.89
2018-06-24T00:13:48.821Z,12.85
2018-06-24T00:14:48.812Z,13.03
2018-06-24T00:15:48.824Z,12.94
2018-06-24T00:16:48.787Z,12.81
2018-06-24T00:17:48.776Z,12.95
2018-06-24T00:18:48.771Z,12.92
2018-06-24T00:19:48.758Z,12.91
2018-06-24T00:20:48.746Z,12.95
2018-06-24T00:21:48.756Z,13.01
2018-06-24T00:22:48.723Z,12.96
2018-06-24T00:23:48.712Z,12.99
2018-06-24T00:24:48.704Z,12.99
2018-06-24T00:25:48.691Z,12.99
2018-06-24T00:26:48.704Z,12.99
2018-06-24T00:27:48.669Z,13.01
2018-06-24T00:28:48.659Z,12.88
2018-06-24T00:29:48.649Z,12.94
2018-06-24T00:30:48.642Z,12.96
2018-06-24T00:31:48.651Z,12.99
2018-06-24T00:32:48.619Z,12.91
2018-06-24T00:33:48.608Z,12.99
2018-06-24T00:34:48.596Z,12.96
2018-06-24T00:35:48.588Z,12.84
2018-06-24T00:36:48.608Z,12.80
2018-06-24T00:37:48.564Z,12.96
2018-06-24T00:38:48.554Z,12.98
2018-06-24T00:39:48.543Z,12.94
2018-06-24T00:40:48.533Z,12.99
2018-06-24T00:41:48.521Z,12.80
2018-06-24T00:42:48.534Z,12.98
2018-06-24T00:43:48.500Z,12.85
2018-06-24T00:44:48.491Z,12.87
2018-06-24T00:45:48.478Z,12.89
2018-06-24T00:46:48.469Z,12.99
2018-06-24T00:47:48.492Z,12.88
2018-06-24T00:48:48.449Z,12.84
2018-06-24T00:49:48.436Z,12.87
2018-06-24T00:50:48.425Z,12.91
2018-06-24T00:51:48.415Z,12.80
2018-06-24T00:52:48.404Z,12.95
2018-06-24T00:53:48.419Z,12.98
2018-06-24T00:54:48.383Z,12.95
2018-06-24T00:55:48.373Z,12.96
2018-06-24T00:56:48.362Z,12.96
2018-06-24T00:57:48.353Z,12.94
2018-06-24T00:58:48.364Z,12.79
2018-06-24T00:59:48.330Z,12.92
2018-06-24T01:00:48.319Z,12.85
2018-06-24T01:01:48.309Z,12.88
2018-06-24T01:02:48.297Z,12.85
2018-06-24T01:03:48.312Z,12.80
2018-06-24T01:04:48.276Z,12.77
2018-06-24T01:05:48.265Z,12.84
2018-06-24T01:06:48.255Z,12.77
2018-06-24T01:07:48.244Z,12.74
2018-06-24T01:08:48.258Z,12.79
2018-06-24T01:09:48.223Z,12.73
2018-06-24T01:10:48.212Z,12.79
2018-06-24T01:11:48.202Z,12.74
2018-06-24T01:12:48.191Z,12.79
2018-06-24T01:13:48.218Z,12.76
2018-06-24T01:14:48.176Z,12.80
2018-06-24T01:15:48.159Z,12.77
2018-06-24T01:16:48.148Z,12.80
2018-06-24T01:17:48.139Z,12.80
2018-06-24T01:18:48.132Z,12.80
2018-06-24T01:19:48.139Z,12.85
2018-06-24T01:20:48.106Z,12.84
2018-06-24T01:21:48.095Z,12.81
2018-06-24T01:22:48.086Z,12.73
2018-06-24T01:23:48.074Z,12.84
2018-06-24T01:24:48.089Z,12.94
2018-06-24T01:25:48.052Z,12.88
2018-06-24T01:26:48.042Z,12.85
2018-06-24T01:27:48.034Z,12.85
2018-06-24T01:28:48.023Z,12.85
2018-06-24T01:29:48.037Z,12.87
2018-06-24T01:30:47.999Z,12.92
2018-06-24T01:31:47.989Z,12.88
2018-06-24T01:32:47.977Z,12.89
2018-06-24T01:33:47.967Z,12.84
2018-06-24T01:34:47.956Z,12.84
2018-06-24T01:35:47.969Z,12.88
2018-06-24T01:36:47.935Z,12.84
2018-06-24T01:37:47.925Z,12.81
2018-06-24T01:38:47.914Z,12.81
2018-06-24T01:39:47.904Z,12.85
2018-06-24T01:40:47.916Z,12.80
2018-06-24T01:41:47.881Z,12.81
2018-06-24T01:42:47.872Z,12.84
2018-06-24T01:43:47.861Z,12.73
2018-06-24T01:44:47.850Z,12.81
2018-06-24T01:45:47.864Z,12.81
2018-06-24T01:46:47.833Z,12.77
2018-06-24T01:47:47.819Z,12.77
2018-06-24T01:48:47.811Z,12.88
2018-06-24T01:49:47.798Z,12.84
2018-06-24T01:50:47.814Z,12.85
2018-06-24T01:51:47.776Z,12.94
2018-06-24T01:52:47.767Z,12.88
2018-06-24T01:53:47.755Z,12.85
2018-06-24T01:54:47.748Z,12.87
2018-06-24T01:55:47.734Z,12.87
2018-06-24T01:56:47.749Z,12.73
2018-06-24T01:57:47.713Z,12.81
2018-06-24T01:58:47.703Z,12.89
2018-06-24T01:59:47.691Z,12.87
2018-06-24T02:00:47.682Z,12.89
2018-06-24T02:01:47.696Z,12.85
2018-06-24T02:02:47.660Z,12.91
2018-06-24T02:03:47.649Z,12.89
2018-06-24T02:04:47.639Z,12.81
2018-06-24T02:05:47.628Z,12.91
2018-06-24T02:06:47.644Z,12.88
2018-06-24T02:07:47.608Z,12.87
2018-06-24T02:08:47.597Z,12.80
2018-06-24T02:09:47.589Z,12.95
2018-06-24T02:10:47.576Z,12.88
2018-06-24T02:11:47.564Z,12.85
2018-06-24T02:12:47.576Z,12.85
2018-06-24T02:13:47.546Z,12.85
2018-06-24T02:14:47.532Z,12.85
2018-06-24T02:15:47.522Z,12.88
2018-06-24T02:16:47.517Z,12.98
2018-06-24T02:17:47.525Z,12.88
2018-06-24T02:18:47.488Z,12.80
2018-06-24T02:19:47.478Z,12.95
2018-06-24T02:20:47.467Z,12.92
2018-06-24T02:21:47.460Z,12.96
2018-06-24T02:22:47.469Z,12.79
2018-06-24T02:23:47.435Z,12.80
2018-06-24T02:24:47.425Z,12.92
2018-06-24T02:25:47.414Z,12.91
2018-06-24T02:26:47.404Z,12.89
2018-06-24T02:27:47.432Z,12.92
2018-06-24T02:28:47.382Z,12.92
2018-06-24T02:29:47.371Z,12.96
2018-06-24T02:30:47.365Z,12.92
2018-06-24T02:31:47.350Z,12.84
2018-06-24T02:32:47.339Z,12.98
2018-06-24T02:33:47.355Z,12.84
2018-06-24T02:34:47.317Z,12.95
2018-06-24T02:35:47.309Z,12.96
2018-06-24T02:36:47.297Z,12.80
2018-06-24T02:37:47.286Z,12.96
2018-06-24T02:38:47.302Z,12.89
2018-06-24T02:39:47.267Z,12.96
2018-06-24T02:40:47.258Z,12.98
2018-06-24T02:41:47.244Z,12.80
2018-06-24T02:42:47.236Z,12.99
2018-06-24T02:43:47.245Z,12.94
2018-06-24T02:44:47.212Z,12.95
2018-06-24T02:45:47.200Z,12.84
2018-06-24T02:46:47.190Z,12.87
2018-06-24T02:47:47.181Z,13.06
2018-06-24T02:48:47.197Z,12.84
2018-06-24T02:49:47.169Z,12.95
2018-06-24T02:50:47.147Z,12.89
2018-06-24T02:51:47.137Z,12.85
2018-06-24T02:52:47.127Z,12.81
2018-06-24T02:53:47.317Z,12.95
2018-06-24T02:54:47.105Z,12.85
2018-06-24T02:55:47.094Z,12.87
2018-06-24T02:56:47.083Z,12.99
2018-06-24T02:57:47.074Z,12.84
2018-06-24T02:58:47.062Z,12.94
2018-06-24T02:59:47.076Z,12.84
2018-06-24T03:00:47.040Z,12.85
2018-06-24T03:01:47.030Z,12.91
2018-06-24T03:02:47.020Z,12.95
2018-06-24T03:03:47.012Z,12.95
2018-06-24T03:04:47.027Z,12.96
2018-06-24T03:05:46.989Z,13.01
2018-06-24T03:06:46.977Z,12.91
2018-06-24T03:07:46.968Z,12.94
2018-06-24T03:08:46.956Z,12.88
2018-06-24T03:09:46.987Z,12.96
2018-06-24T03:10:46.936Z,12.88
2018-06-24T03:11:46.924Z,12.94
2018-06-24T03:12:46.914Z,12.89
2018-06-24T03:13:46.922Z,12.89
2018-06-24T03:14:46.894Z,12.96
2018-06-24T03:15:46.906Z,12.87
2018-06-24T03:16:46.875Z,12.88
2018-06-24T03:17:46.864Z,12.80
2018-06-24T03:18:46.851Z,12.96
2018-06-24T03:19:46.839Z,12.89
2018-06-24T03:20:46.852Z,12.92
2018-06-24T03:21:46.818Z,12.91
2018-06-24T03:22:46.808Z,12.88
2018-06-24T03:23:46.797Z,12.85
2018-06-24T03:24:46.786Z,12.80
2018-06-24T03:25:46.800Z,12.88
2018-06-24T03:26:46.765Z,12.94
2018-06-24T03:27:46.754Z,12.87
2018-06-24T03:28:46.748Z,12.87
2018-06-24T03:29:46.735Z,12.88
2018-06-24T03:30:46.723Z,12.85
2018-06-24T03:31:46.737Z,12.77
2018-06-24T03:32:46.700Z,12.84
2018-06-24T03:33:46.695Z,12.77
2018-06-24T03:34:46.679Z,12.80
2018-06-24T03:35:46.669Z,12.73
2018-06-24T03:36:46.682Z,12.79
2018-06-24T03:37:46.648Z,12.76
2018-06-24T03:38:46.636Z,12.76
2018-06-24T03:39:46.626Z,12.71
2018-06-24T03:40:46.615Z,12.70
2018-06-24T03:41:46.631Z,12.66
2018-06-24T03:42:46.596Z,12.66
2018-06-24T03:43:46.584Z,12.62
2018-06-24T03:44:46.572Z,12.61
2018-06-24T03:45:46.566Z,12.58
2018-06-24T03:46:46.551Z,12.56
2018-06-24T03:47:46.563Z,12.52
2018-06-24T03:48:46.529Z,12.49
2018-06-24T03:49:46.519Z,12.49
2018-06-24T03:50:46.510Z,12.49
2018-06-24T03:51:46.499Z,12.58
2018-06-24T03:52:46.512Z,12.44
2018-06-24T03:53:46.477Z,12.44
2018-06-24T03:54:46.467Z,12.40
2018-06-24T03:55:46.455Z,12.40
2018-06-24T03:56:46.448Z,12.38
2018-06-24T03:57:46.461Z,12.41
2018-06-24T03:58:46.425Z,12.40
2018-06-24T03:59:46.412Z,12.25
2018-06-24T04:00:46.401Z,12.29
2018-06-24T04:01:46.391Z,12.23
2018-06-24T04:02:46.385Z,12.29
2018-06-24T04:03:46.405Z,12.25
2018-06-24T04:04:46.427Z,12.25
2018-06-24T04:05:46.355Z,12.31
2018-06-24T04:06:46.341Z,12.26
2018-06-24T04:07:46.329Z,12.25
2018-06-24T04:08:46.318Z,12.41
2018-06-24T04:09:46.330Z,12.36
2018-06-24T04:10:46.296Z,12.34
2018-06-24T04:11:46.285Z,12.40
2018-06-24T04:12:46.274Z,12.40
2018-06-24T04:13:46.264Z,12.40
2018-06-24T04:14:46.277Z,12.49
2018-06-24T04:15:46.243Z,12.41
2018-06-24T04:16:46.233Z,12.46
2018-06-24T04:17:46.221Z,12.49
2018-06-24T04:18:46.237Z,12.51
2018-06-24T04:19:46.199Z,12.40
2018-06-24T04:20:46.190Z,12.52
2018-06-24T04:21:46.179Z,12.41
2018-06-24T04:22:46.169Z,12.41
2018-06-24T04:23:46.180Z,12.51
2018-06-24T04:24:46.146Z,12.48
2018-06-24T04:25:46.152Z,12.49
2018-06-24T04:26:46.125Z,12.51
2018-06-24T04:27:46.114Z,12.55
2018-06-24T04:28:46.132Z,12.63
2018-06-24T04:29:46.094Z,12.59
2018-06-24T04:30:46.082Z,12.62
2018-06-24T04:31:46.072Z,12.67
2018-06-24T04:32:46.061Z,12.69
2018-06-24T04:33:46.053Z,12.71
2018-06-24T04:34:46.066Z,12.77
2018-06-24T04:35:46.030Z,12.80
2018-06-24T04:36:46.020Z,12.80
2018-06-24T04:37:46.008Z,12.89
2018-06-24T04:38:45.997Z,12.88
2018-06-24T04:39:46.010Z,12.96
2018-06-24T04:40:45.978Z,13.04
2018-06-24T04:41:45.965Z,12.91
2018-06-24T04:42:45.954Z,12.94
2018-06-24T04:43:45.945Z,12.95
2018-06-24T04:44:45.960Z,13.06
2018-06-24T04:45:45.922Z,13.04
2018-06-24T04:46:45.914Z,13.01
2018-06-24T04:47:45.904Z,13.07
2018-06-24T04:48:45.890Z,13.13
2018-06-24T04:49:45.882Z,13.10
2018-06-24T04:50:45.896Z,13.21
2018-06-24T04:51:45.947Z,13.17
2018-06-24T04:52:45.847Z,13.17
2018-06-24T04:53:45.837Z,13.19
2018-06-24T04:54:45.827Z,13.17
2018-06-24T04:55:45.852Z,13.19
2018-06-24T04:56:45.803Z,13.19
2018-06-24T04:57:45.793Z,13.16
2018-06-24T04:58:45.782Z,13.19
2018-06-24T04:59:45.771Z,13.22
2018-06-24T05:00:45.761Z,13.24
2018-06-24T05:01:45.773Z,13.21
2018-06-24T05:02:45.739Z,13.16
2018-06-24T05:03:45.730Z,13.24
2018-06-24T05:04:45.717Z,13.16
2018-06-24T05:05:45.707Z,13.16
2018-06-24T05:06:45.719Z,13.14
2018-06-24T05:07:45.685Z,13.14
2018-06-24T05:08:45.674Z,13.16
2018-06-24T05:09:45.664Z,13.16
2018-06-24T05:10:45.653Z,13.12
2018-06-24T05:11:45.665Z,13.10
2018-06-24T05:12:45.632Z,13.10
2018-06-24T05:13:45.620Z,13.03
2018-06-24T05:14:45.610Z,13.04
2018-06-24T05:15:45.598Z,13.03
2018-06-24T05:16:45.610Z,13.06
2018-06-24T05:17:45.577Z,13.07
2018-06-24T05:18:45.570Z,13.07
2018-06-24T05:19:45.554Z,13.04
2018-06-24T05:20:45.543Z,13.04
2018-06-24T05:21:45.537Z,13.16
2018-06-24T05:22:45.546Z,13.14
2018-06-24T05:23:45.511Z,13.24
2018-06-24T05:24:45.503Z,13.27
2018-06-24T05:25:45.491Z,13.29
2018-06-24T05:26:45.479Z,13.36
2018-06-24T05:27:45.511Z,13.46
2018-06-24T05:28:45.459Z,13.47
2018-06-24T05:29:45.448Z,13.55
2018-06-24T05:30:45.434Z,13.54
2018-06-24T05:31:45.423Z,13.69
2018-06-24T05:32:45.413Z,13.79
2018-06-24T05:33:45.428Z,13.81
2018-06-24T05:34:45.391Z,13.91
2018-06-24T05:35:45.387Z,13.91
2018-06-24T05:36:45.375Z,14.04
2018-06-24T05:37:45.364Z,14.04
2018-06-24T05:38:45.370Z,14.11
2018-06-24T05:39:45.337Z,14.24
2018-06-24T05:40:45.326Z,14.34
2018-06-24T05:41:45.315Z,14.42
2018-06-24T05:42:45.307Z,14.54
2018-06-24T05:43:45.328Z,14.54
2018-06-24T05:44:45.282Z,14.60
2018-06-24T05:45:45.274Z,14.60
2018-06-24T05:46:45.262Z,14.63
2018-06-24T05:47:45.251Z,14.63
2018-06-24T05:48:45.248Z,14.71
2018-06-24T05:49:45.255Z,14.69
2018-06-24T05:50:45.220Z,14.78
2018-06-24T05:51:45.208Z,14.78
2018-06-24T05:52:45.199Z,14.85
2018-06-24T05:53:45.188Z,14.94
2018-06-24T05:54:45.201Z,14.98
2018-06-24T05:55:45.166Z,15.04
2018-06-24T05:56:45.155Z,15.15
2018-06-24T05:57:45.144Z,15.13
2018-06-24T05:58:45.134Z,15.16
2018-06-24T05:59:45.146Z,15.27
2018-06-24T06:00:45.117Z,15.33
2018-06-24T06:01:45.102Z,15.28
2018-06-24T06:02:45.094Z,15.38
2018-06-24T06:03:45.080Z,15.44
2018-06-24T06:04:45.097Z,15.41
2018-06-24T06:05:45.061Z,15.55
2018-06-24T06:06:45.050Z,15.67
2018-06-24T06:07:45.043Z,15.68
2018-06-24T06:08:45.027Z,15.81
2018-06-24T06:09:45.016Z,15.77
2018-06-24T06:10:45.028Z,15.80
2018-06-24T06:11:45.027Z,15.92
2018-06-24T06:12:44.982Z,16.03
2018-06-24T06:13:44.972Z,16.04
2018-06-24T06:14:44.965Z,16.14
2018-06-24T06:15:44.973Z,16.16
2018-06-24T06:16:44.938Z,16.26
2018-06-24T06:17:44.928Z,16.32
2018-06-24T06:18:44.917Z,16.26
2018-06-24T06:19:44.908Z,16.27
2018-06-24T06:20:44.920Z,16.26
2018-06-24T06:21:44.933Z,16.26
2018-06-24T06:22:44.877Z,16.30
2018-06-24T06:23:44.862Z,16.26
2018-06-24T06:24:44.852Z,16.26
2018-06-24T06:25:44.869Z,16.26
2018-06-24T06:26:44.836Z,16.32
2018-06-24T06:27:44.820Z,16.32
2018-06-24T06:28:44.810Z,16.26
2018-06-24T06:29:44.798Z,16.27
2018-06-24T06:30:44.787Z,16.18
2018-06-24T06:31:44.805Z,16.13
2018-06-24T06:32:44.766Z,15.96
2018-06-24T06:33:44.755Z,15.95
2018-06-24T06:34:44.747Z,15.91
2018-06-24T06:35:44.734Z,15.89
2018-06-24T06:36:44.773Z,15.86
2018-06-24T06:37:44.718Z,15.91
2018-06-24T06:38:44.701Z,16.03
2018-06-24T06:39:44.691Z,15.98
2018-06-24T06:40:44.679Z,15.96
2018-06-24T06:41:44.696Z,15.78
2018-06-24T06:42:44.660Z,15.78
2018-06-24T06:43:44.648Z,15.85
2018-06-24T06:44:44.638Z,15.88
2018-06-24T06:45:44.868Z,16.03
2018-06-24T06:46:44.615Z,16.01
2018-06-24T06:47:44.629Z,16.01
2018-06-24T06:48:44.593Z,16.08
2018-06-24T06:49:44.582Z,16.11
2018-06-24T06:50:44.572Z,16.17
2018-06-24T06:51:44.561Z,16.16
2018-06-24T06:52:44.574Z,16.32
2018-06-24T06:53:44.539Z,16.30
2018-06-24T06:54:44.529Z,16.36
2018-06-24T06:55:44.517Z,16.37
2018-06-24T06:56:44.506Z,16.40
2018-06-24T06:57:44.525Z,16.44
2018-06-24T06:58:44.484Z,16.50
2018-06-24T06:59:44.475Z,16.51
2018-06-24T07:00:44.464Z,16.57
2018-06-24T07:01:44.454Z,16.60
2018-06-24T07:02:44.464Z,16.60
2018-06-24T07:03:44.430Z,16.51
2018-06-24T07:04:44.419Z,16.51
2018-06-24T07:05:44.476Z,16.48
2018-06-24T07:06:44.401Z,16.57
2018-06-24T07:07:44.414Z,16.62
2018-06-24T07:08:44.376Z,16.54
2018-06-24T07:09:44.368Z,16.60
2018-06-24T07:10:44.355Z,16.72
2018-06-24T07:11:44.344Z,16.78
2018-06-24T07:12:44.333Z,16.82
2018-06-24T07:13:44.348Z,16.92
2018-06-24T07:14:44.313Z,17.05
2018-06-24T07:15:44.308Z,17.03
2018-06-24T07:16:44.292Z,17.12
2018-06-24T07:17:44.304Z,17.15
2018-06-24T07:18:44.304Z,17.21
2018-06-24T07:19:44.261Z,17.14
2018-06-24T07:20:44.251Z,17.32
2018-06-24T07:21:44.242Z,17.22
2018-06-24T07:22:44.230Z,17.24
2018-06-24T07:23:44.219Z,17.28
2018-06-24T07:24:44.234Z,17.32
2018-06-24T07:25:44.200Z,17.32
2018-06-24T07:26:44.188Z,17.38
2018-06-24T07:27:44.184Z,17.32
2018-06-24T07:28:44.165Z,17.32
2018-06-24T07:29:44.181Z,17.39
2018-06-24T07:30:44.145Z,17.24
2018-06-24T07:31:44.133Z,17.28
2018-06-24T07:32:44.123Z,17.32
2018-06-24T07:33:44.228Z,17.38
2018-06-24T07:34:44.132Z,17.47
2018-06-24T07:35:44.090Z,17.55
2018-06-24T07:36:44.079Z,17.62
2018-06-24T07:37:44.067Z,17.73
2018-06-24T07:38:44.057Z,17.84
2018-06-24T07:39:44.045Z,18.05
2018-06-24T07:40:44.058Z,18.17
2018-06-24T07:41:44.025Z,18.25
2018-06-24T07:42:44.012Z,18.46
2018-06-24T07:43:44.000Z,18.50
2018-06-24T07:44:43.993Z,18.49
2018-06-24T07:45:44.003Z,18.51
2018-06-24T07:46:43.968Z,18.57
2018-06-24T07:47:43.957Z,18.69
2018-06-24T07:48:43.946Z,18.65
2018-06-24T07:49:43.934Z,18.66
2018-06-24T07:50:43.929Z,18.68
2018-06-24T07:51:43.938Z,18.86
2018-06-24T07:52:43.901Z,18.87
2018-06-24T07:53:43.891Z,18.93
2018-06-24T07:54:43.880Z,19.05
2018-06-24T07:55:43.872Z,19.09
2018-06-24T07:56:43.859Z,19.01
2018-06-24T07:57:43.878Z,18.99
2018-06-24T07:58:43.839Z,18.97
2018-06-24T07:59:43.828Z,18.96
2018-06-24T08:00:43.817Z,19.12
2018-06-24T08:01:43.808Z,19.09
2018-06-24T08:02:43.798Z,19.17
2018-06-24T08:03:43.809Z,19.21
2018-06-24T08:04:43.774Z,19.27
2018-06-24T08:05:43.763Z,19.39
2018-06-24T08:06:43.754Z,19.45
2018-06-24T08:07:43.743Z,19.42
2018-06-24T08:08:43.755Z,19.60
2018-06-24T08:09:43.722Z,19.62
2018-06-24T08:10:43.712Z,19.60
2018-06-24T08:11:43.704Z,19.70
2018-06-24T08:12:43.691Z,19.75
2018-06-24T08:13:43.708Z,19.67
2018-06-24T08:14:43.669Z,19.65
2018-06-24T08:15:43.658Z,19.75
2018-06-24T08:16:43.649Z,19.70
2018-06-24T08:17:43.635Z,19.75
2018-06-24T08:18:43.698Z,19.65
2018-06-24T08:19:43.645Z,19.64
2018-06-24T08:20:43.603Z,19.75
2018-06-24T08:21:43.594Z,19.85
2018-06-24T08:22:43.590Z,19.85
2018-06-24T08:23:43.576Z,19.83
2018-06-24T08:24:43.588Z,19.79
2018-06-24T08:25:43.550Z,19.68
2018-06-24T08:26:43.539Z,19.80
2018-06-24T08:27:43.530Z,19.79
2018-06-24T08:28:43.519Z,19.85
2018-06-24T08:29:43.535Z,19.85
2018-06-24T08:30:43.497Z,19.97
2018-06-24T08:31:43.619Z,20.00
2018-06-24T08:32:43.476Z,20.02
2018-06-24T08:33:43.465Z,19.86
2018-06-24T08:34:43.455Z,19.78
2018-06-24T08:35:43.467Z,19.64
2018-06-24T08:36:43.432Z,19.49
2018-06-24T08:37:43.424Z,19.39
2018-06-24T08:38:43.411Z,19.25
2018-06-24T08:39:43.401Z,19.16
2018-06-24T08:40:43.418Z,19.05
2018-06-24T08:41:43.379Z,18.90
2018-06-24T08:42:43.370Z,18.82
2018-06-24T08:43:43.360Z,18.71
2018-06-24T08:44:43.348Z,18.82
2018-06-24T08:45:43.366Z,18.84
2018-06-24T08:46:43.326Z,19.06
2018-06-24T08:47:43.316Z,19.09
2018-06-24T08:48:43.306Z,19.17
2018-06-24T08:49:43.299Z,19.34
2018-06-24T08:50:43.284Z,19.43
2018-06-24T08:51:43.298Z,19.50
2018-06-24T08:52:43.266Z,19.70
2018-06-24T08:53:43.252Z,19.76
2018-06-24T08:54:43.247Z,19.82
2018-06-24T08:55:43.231Z,19.78
2018-06-24T08:56:43.258Z,19.87
2018-06-24T08:57:43.209Z,19.85
2018-06-24T08:58:43.199Z,19.86
2018-06-24T08:59:43.190Z,19.89
2018-06-24T09:00:43.253Z,20.01
2018-06-24T09:01:43.167Z,19.98
2018-06-24T09:02:43.186Z,19.98
2018-06-24T09:03:43.145Z,20.10
2018-06-24T09:04:43.134Z,20.07
2018-06-24T09:05:43.126Z,20.15
2018-06-24T09:06:43.122Z,20.16
2018-06-24T09:07:43.133Z,20.13
2018-06-24T09:08:43.092Z,20.33
2018-06-24T09:09:43.081Z,20.23
2018-06-24T09:10:43.072Z,20.25
2018-06-24T09:11:43.061Z,20.30
2018-06-24T09:12:43.088Z,20.23
2018-06-24T09:13:43.040Z,20.12
2018-06-24T09:14:43.029Z,20.00
2018-06-24T09:15:43.072Z,20.01
2018-06-24T09:16:43.025Z,20.00
2018-06-24T09:17:42.997Z,20.00
2018-06-24T09:18:43.011Z,20.20
2018-06-24T09:19:42.978Z,20.15
2018-06-24T09:20:42.967Z,19.98
2018-06-24T09:21:42.959Z,20.04
2018-06-24T09:22:42.943Z,20.01
2018-06-24T09:23:42.963Z,20.04
2018-06-24T09:24:42.921Z,20.01
2018-06-24T09:25:42.911Z,20.10
2018-06-24T09:26:42.900Z,20.01
2018-06-24T09:27:42.941Z,20.19
2018-06-24T09:28:42.879Z,20.05
2018-06-24T09:29:42.891Z,19.97
2018-06-24T09:30:42.919Z,19.92
2018-06-24T09:31:42.846Z,19.89
2018-06-24T09:32:42.837Z,19.72
2018-06-24T09:33:42.825Z,19.70
2018-06-24T09:34:42.842Z,19.60
2018-06-24T09:35:42.804Z,19.58
2018-06-24T09:36:42.796Z,19.47
2018-06-24T09:37:42.783Z,19.49
2018-06-24T09:38:42.772Z,19.38
2018-06-24T09:39:42.761Z,19.43
2018-06-24T09:40:42.777Z,19.53
2018-06-24T09:41:42.745Z,19.58
2018-06-24T09:42:42.729Z,19.65
2018-06-24T09:43:42.719Z,19.75
2018-06-24T09:44:42.709Z,19.83
2018-06-24T09:45:42.732Z,19.97
2018-06-24T09:46:42.687Z,20.26
2018-06-24T09:47:42.704Z,20.42
2018-06-24T09:48:42.667Z,20.54
2018-06-24T09:49:42.656Z,20.66
2018-06-24T09:50:42.645Z,20.81
2018-06-24T09:51:42.656Z,20.83
2018-06-24T09:52:42.626Z,20.91
2018-06-24T09:53:42.612Z,20.97
2018-06-24T09:54:42.605Z,20.90
2018-06-24T09:55:42.590Z,20.90
2018-06-24T09:56:42.608Z,20.79
2018-06-24T09:57:42.569Z,20.81
2018-06-24T09:58:42.558Z,20.94
2018-06-24T09:59:42.548Z,20.93
2018-06-24T10:00:42.538Z,20.96
2018-06-24T10:01:42.526Z,20.78
2018-06-24T10:02:42.549Z,20.85
2018-06-24T10:03:42.508Z,20.76
2018-06-24T10:04:42.495Z,20.82
2018-06-24T10:05:42.485Z,20.83
2018-06-24T10:06:42.474Z,20.88
2018-06-24T10:07:42.465Z,20.83
2018-06-24T10:08:42.475Z,20.83
2018-06-24T10:09:42.444Z,20.96
2018-06-24T10:10:42.430Z,21.01
2018-06-24T10:11:42.420Z,21.19
2018-06-24T10:12:42.410Z,21.28
2018-06-24T10:13:42.441Z,21.31
2018-06-24T10:14:42.389Z,21.30
2018-06-24T10:15:42.379Z,21.42
2018-06-24T10:16:42.370Z,21.43
2018-06-24T10:17:42.358Z,21.48
2018-06-24T10:18:42.399Z,21.71
2018-06-24T10:19:42.336Z,21.83
2018-06-24T10:20:42.326Z,22.14
2018-06-24T10:21:42.315Z,22.15
2018-06-24T10:22:42.310Z,22.38
2018-06-24T10:23:42.298Z,22.49
2018-06-24T10:24:42.324Z,22.56
2018-06-24T10:25:42.273Z,22.57
2018-06-24T10:26:42.263Z,22.59
2018-06-24T10:27:42.254Z,22.70
2018-06-24T10:28:42.241Z,22.76
2018-06-24T10:29:42.236Z,22.96
2018-06-24T10:30:42.244Z,23.22
2018-06-24T10:31:42.209Z,23.31
2018-06-24T10:32:42.198Z,23.01
2018-06-24T10:33:42.189Z,23.37
2018-06-24T10:34:42.180Z,23.78
2018-06-24T10:35:42.192Z,23.81
2018-06-24T10:36:42.157Z,23.62
2018-06-24T10:37:42.146Z,24.41
2018-06-24T10:38:42.137Z,24.79
2018-06-24T10:39:42.125Z,24.46
2018-06-24T10:40:42.138Z,23.97
2018-06-24T10:41:42.104Z,23.62
2018-06-24T10:42:42.096Z,23.26
2018-06-24T10:43:42.083Z,23.01
2018-06-24T10:44:42.072Z,23.07
2018-06-24T10:45:42.088Z,23.69
2018-06-24T10:46:42.051Z,23.38
2018-06-24T10:47:42.040Z,23.25
2018-06-24T10:48:42.030Z,23.04
2018-06-24T10:49:42.019Z,22.94
2018-06-24T10:50:42.009Z,23.42
2018-06-24T10:51:42.030Z,23.42
2018-06-24T10:52:41.987Z,23.67
2018-06-24T10:53:41.977Z,23.92
2018-06-24T10:54:41.966Z,24.27
2018-06-24T10:55:41.956Z,25.02
2018-06-24T10:56:41.945Z,25.16
2018-06-24T10:57:41.960Z,24.94
2018-06-24T10:58:41.925Z,24.74
2018-06-24T10:59:41.914Z,24.48
2018-06-24T11:00:41.906Z,24.41
2018-06-24T11:01:41.899Z,25.22
2018-06-24T11:02:41.912Z,25.78
2018-06-24T11:03:41.875Z,26.23
2018-06-24T11:04:41.861Z,25.89
2018-06-24T11:05:41.851Z,25.53
2018-06-24T11:06:41.840Z,25.04
2018-06-24T11:07:41.831Z,24.75
2018-06-24T11:08:41.845Z,24.39
2018-06-24T11:09:41.818Z,24.41
2018-06-24T11:10:41.800Z,24.51
2018-06-24T11:11:41.789Z,24.60
2018-06-24T11:12:41.781Z,24.79
2018-06-24T11:13:41.797Z,25.17
2018-06-24T11:14:41.759Z,25.29
2018-06-24T11:15:41.748Z,26.28
2018-06-24T11:16:41.738Z,26.96
2018-06-24T11:17:41.728Z,27.45
2018-06-24T11:18:41.718Z,27.81
2018-06-24T11:19:41.731Z,28.33
2018-06-24T11:20:41.698Z,28.17
2018-06-24T11:21:41.690Z,28.02
2018-06-24T11:22:41.677Z,27.21
2018-06-24T11:23:41.666Z,26.42
2018-06-24T11:24:41.694Z,25.78
2018-06-24T11:25:41.712Z,25.78
2018-06-24T11:26:41.864Z,26.01
2018-06-24T11:27:41.637Z,26.38
2018-06-24T11:28:41.631Z,26.73
2018-06-24T11:29:41.627Z,26.46
2018-06-24T11:30:41.662Z,26.50
2018-06-24T11:31:41.586Z,26.42
2018-06-24T11:32:41.575Z,26.83
2018-06-24T11:33:41.565Z,27.21
2018-06-24T11:34:41.555Z,27.45
2018-06-24T11:35:41.545Z,27.91
2018-06-24T11:36:41.562Z,27.25
2018-06-24T11:37:41.525Z,26.87
2018-06-24T11:38:41.514Z,26.16
2018-06-24T11:39:41.504Z,25.51
2018-06-24T11:40:41.497Z,25.09
2018-06-24T11:41:41.486Z,24.63
2018-06-24T11:42:41.497Z,24.52
2018-06-24T11:43:41.465Z,25.29
2018-06-24T11:44:41.453Z,25.93
2018-06-24T11:45:41.443Z,26.71
2018-06-24T11:46:41.433Z,26.73
2018-06-24T11:47:41.450Z,26.17
2018-06-24T11:48:41.413Z,25.49
2018-06-24T11:49:41.402Z,24.90
2018-06-24T11:50:41.393Z,24.23
2018-06-24T11:51:41.383Z,23.52
2018-06-24T11:52:41.371Z,22.85
2018-06-24T11:53:41.391Z,22.45
2018-06-24T11:54:41.350Z,22.17
2018-06-24T11:55:41.340Z,22.02
2018-06-24T11:56:41.329Z,21.71
2018-06-24T11:57:41.319Z,21.58
2018-06-24T11:58:41.309Z,21.46
2018-06-24T11:59:41.408Z,21.55
2018-06-24T12:00:41.287Z,21.81
2018-06-24T12:01:41.325Z,22.60
2018-06-24T12:02:41.327Z,23.29
2018-06-24T12:03:41.257Z,24.99
2018-06-24T12:04:41.270Z,26.54
2018-06-24T12:05:41.238Z,27.81
2018-06-24T12:06:41.226Z,29.05
2018-06-24T12:07:41.216Z,29.70
2018-06-24T12:08:41.205Z,30.46
2018-06-24T12:09:41.245Z,30.30
2018-06-24T12:10:41.217Z,30.11
2018-06-24T12:11:41.173Z,29.71
2018-06-24T12:12:41.165Z,29.58
2018-06-24T12:13:41.154Z,29.91
2018-06-24T12:14:41.146Z,30.13
2018-06-24T12:15:41.168Z,30.04
2018-06-24T12:16:41.130Z,29.88
2018-06-24T12:17:41.114Z,29.54
2018-06-24T12:18:41.105Z,28.62
2018-06-24T12:19:41.096Z,27.61
2018-06-24T12:20:41.084Z,26.84
2018-06-24T12:21:41.098Z,26.27
2018-06-24T12:22:41.066Z,25.61
2018-06-24T12:23:41.053Z,25.02
2018-06-24T12:24:41.043Z,24.60
2018-06-24T12:25:41.034Z,24.19
2018-06-24T12:26:41.049Z,23.94
2018-06-24T12:27:41.014Z,23.45
2018-06-24T12:28:41.004Z,23.23
2018-06-24T12:29:40.992Z,23.54
2018-06-24T12:30:41.039Z,24.87
2018-06-24T12:31:41.013Z,25.76
2018-06-24T12:32:40.962Z,26.79
2018-06-24T12:33:40.953Z,27.74
2018-06-24T12:34:40.942Z,28.52
2018-06-24T12:35:40.934Z,29.39
2018-06-24T12:36:40.944Z,29.88
2018-06-24T12:37:40.941Z,29.52
2018-06-24T12:38:40.901Z,29.10
2018-06-24T12:39:40.892Z,29.07
2018-06-24T12:40:40.881Z,29.18
2018-06-24T12:41:40.873Z,28.97
2018-06-24T12:42:40.862Z,28.79
2018-06-24T12:43:40.878Z,28.27
2018-06-24T12:44:40.841Z,27.88
2018-06-24T12:45:40.834Z,27.45
2018-06-24T12:46:40.821Z,27.02
2018-06-24T12:47:40.812Z,26.87
2018-06-24T12:48:40.861Z,27.05
2018-06-24T12:49:40.790Z,27.13
2018-06-24T12:50:40.782Z,27.42
2018-06-24T12:51:40.770Z,27.61
2018-06-24T12:52:40.806Z,27.35